Eldorado — WDE8374 — position and weather

sailwx.info

Track history (hours):
 
Tides and Currents Weather Stations Pressure Air Temp Water Temp Dewpoint Dewpoint Depression Visibility Wind Speed Wind Dir Waves Ship Positions

Eldorado

Owner: FUKUTO / REDLEW CHARTERS, INC., CYPRESS, CA. More information available from US FCC via Universal Licensing System and Coast Guard Vessel Documentation Center.

Last reported at 2018-Aug-20 09:44 UTC. Time now 2018-Aug-21 04:21 UTC.
Position N 33°46' W 118°13'.

Length 28 m; draft 2.5 m.

Type: Passenger vessel. MMSI: 367404740.

Date/timePositionNaut miles runAvg speedWind from/ knotsBaromVisibWave heightAir tempDewpointWater temp
2018-Aug-20 09:44N 33°46' W 118°13'0 0.0
2018-Aug-20 09:30N 33°46' W 118°13'2 5.3
2018-Aug-20 09:04N 33°44' W 118°12'1 9.8
2018-Aug-20 09:00N 33°44' W 118°12'510.2
2018-Aug-20 08:31N 33°40' W 118°08'510.1
2018-Aug-20 08:03N 33°36' W 118°05'010.2
2018-Aug-20 08:01N 33°36' W 118°04'5 9.8
2018-Aug-20 07:31N 33°32' W 118°01'4 9.6
2018-Aug-20 07:03N 33°28' W 117°58'0 9.2
2018-Aug-20 07:01N 33°28' W 117°57'5 9.6
2018-Aug-20 06:31N 33°24' W 117°54'4 9.8
2018-Aug-20 06:04N 33°20' W 117°51'110.1
2018-Aug-20 06:01N 33°20' W 117°51'5 9.9
2018-Aug-20 05:31N 33°16' W 117°47'510.3
2018-Aug-20 05:04N 33°12' W 117°44'110.3
2018-Aug-20 05:01N 33°12' W 117°43'210.3
2018-Aug-20 04:47N 33°10' W 117°42'310.5
2018-Aug-20 04:31N 33°07' W 117°40'510.3
2018-Aug-20 04:00N 33°03' W 117°36'5 9.9
2018-Aug-20 03:30N 32°59' W 117°33'5 9.8
2018-Aug-20 03:01N 32°55' W 117°30'5 9.7
2018-Aug-20 02:30N 32°51' W 117°26'5 9.6
2018-Aug-20 02:01N 32°47' W 117°23'5 9.5
2018-Aug-20 01:30N 32°43' W 117°20'5 9.5
2018-Aug-20 01:00N 32°39' W 117°16'3 6.0
2018-Aug-20 00:30N 32°42' W 117°14'2 2.8
2018-Aug-19 23:51N 32°43' W 117°14'0 0.0
2018-Aug-19 23:21N 32°43' W 117°14'43 4.3
2018-Aug-19 13:13N 32°01' W 117°25'1 5.1
2018-Aug-19 13:00N 32°01' W 117°24'3 4.5
2018-Aug-19 12:25N 31°58' W 117°22'6 2.1
2018-Aug-19 09:23N 32°05' W 117°21'4 3.7
2018-Aug-19 08:26N 32°04' W 117°17'2 4.2
2018-Aug-19 08:00N 32°03' W 117°15'2 4.0
2018-Aug-19 07:30N 32°03' W 117°13'2 3.7
2018-Aug-19 07:00N 32°02' W 117°11'2 3.9
2018-Aug-19 06:30N 32°02' W 117°09'12 4.2
2018-Aug-19 03:42N 32°02' W 117°22'1 4.1
2018-Aug-19 03:30N 32°02' W 117°23'2 2.1
2018-Aug-19 02:42N 32°02' W 117°25'1 6.5
2018-Aug-19 02:30N 32°01' W 117°25'3 5.3
2018-Aug-19 01:59N 32°00' W 117°21'2 3.4
2018-Aug-19 01:24N 32°02' W 117°22'3 6.5
2018-Aug-19 00:58N 32°02' W 117°25'6 6.0
2018-Aug-18 23:54N 32°08' W 117°28'410.2
2018-Aug-18 23:30N 32°12' W 117°27'5 9.9
2018-Aug-18 23:00N 32°17' W 117°25'510.0
2018-Aug-18 22:30N 32°22' W 117°24'6 9.8
2018-Aug-18 21:56N 32°27' W 117°22'4 9.5
2018-Aug-18 21:30N 32°31' W 117°20'5 9.8
2018-Aug-18 21:00N 32°35' W 117°17'5 9.1
2018-Aug-18 20:30N 32°39' W 117°13'3 5.8
2018-Aug-18 20:00N 32°42' W 117°14'0 0.1
2018-Aug-18 19:30N 32°42' W 117°14'2 1.6
2018-Aug-18 18:19N 32°43' W 117°14'0 0.0
2018-Aug-18 17:58N 32°43' W 117°14'15 1.5
2018-Aug-18 08:16N 32°29' W 117°18'2 7.2
2018-Aug-18 08:00N 32°27' W 117°19'4 6.9
2018-Aug-18 07:26N 32°23' W 117°20'3 6.9
2018-Aug-18 06:58N 32°21' W 117°18'8 0.2
2018-Aug-16 22:08N 32°27' W 117°23'1 9.7
2018-Aug-16 21:59N 32°29' W 117°22'5 9.6
2018-Aug-16 21:30N 32°32' W 117°19'510.3
2018-Aug-16 21:00N 32°37' W 117°16'5 9.4
2018-Aug-16 20:30N 32°41' W 117°14'0 0.9
2018-Aug-16 20:00N 32°42' W 117°14'0 0.6
2018-Aug-16 19:30N 32°42' W 117°14'1 1.9
2018-Aug-16 18:44N 32°43' W 117°14'0 0.0
2018-Aug-16 17:57N 32°43' W 117°14'0 0.0
2018-Aug-16 17:13N 32°43' W 117°14'0 0.0
2018-Aug-16 15:42N 32°43' W 117°14'0 0.0
2018-Aug-16 14:15N 32°43' W 117°14'0 0.0
2018-Aug-16 13:57N 32°43' W 117°14'0 0.0
2018-Aug-16 13:27N 32°43' W 117°14'0 0.0
2018-Aug-16 13:00N 32°43' W 117°14'0 0.0
2018-Aug-16 12:30N 32°43' W 117°14'0 0.0
2018-Aug-16 11:59N 32°43' W 117°14'0 0.0
2018-Aug-16 11:29N 32°43' W 117°14'0 0.0
2018-Aug-16 10:58N 32°43' W 117°14'0 0.0
2018-Aug-16 10:30N 32°43' W 117°14'0 0.0
2018-Aug-16 10:00N 32°43' W 117°14'1 0.5
2018-Aug-16 08:41N 32°43' W 117°13'2 9.5
2018-Aug-16 08:30N 32°41' W 117°14'4 7.8
2018-Aug-16 08:00N 32°38' W 117°17'5 9.9
2018-Aug-16 07:30N 32°42' W 117°21'5 9.6
2018-Aug-16 07:00N 32°46' W 117°24'5 9.6
2018-Aug-16 06:30N 32°50' W 117°27'510.1
2018-Aug-16 06:00N 32°54' W 117°31'5 9.7
2018-Aug-16 05:30N 32°58' W 117°34'5 9.6
2018-Aug-16 05:00N 33°02' W 117°37'5 9.4
2018-Aug-16 04:30N 33°06' W 117°40'5 9.6
2018-Aug-16 04:00N 33°10' W 117°44'510.0
2018-Aug-16 03:30N 33°14' W 117°47'510.2
2018-Aug-16 03:00N 33°18' W 117°50'510.3
2018-Aug-16 02:30N 33°22' W 117°54'510.5
2018-Aug-16 02:00N 33°27' W 117°57'510.7
2018-Aug-16 01:30N 33°31' W 118°01'510.9
2018-Aug-16 01:00N 33°36' W 118°05'510.5
2018-Aug-16 00:30N 33°40' W 118°08'510.3
2018-Aug-16 00:00N 33°44' W 118°12'2 4.6
2018-Aug-15 23:30N 33°46' W 118°13'0 0.0
2018-Aug-15 23:00N 33°46' W 118°13'0 0.0
2018-Aug-15 22:30N 33°46' W 118°13'3 5.1
2018-Aug-15 22:00N 33°44' W 118°13'3 5.2
2018-Aug-15 21:30N 33°44' W 118°17'0 0.1
2018-Aug-15 21:00N 33°44' W 118°16'3 6.0
2018-Aug-15 20:30N 33°45' W 118°13'  
2018-Aug-11 22:32N 33°46' W 118°13'0 0.0
2018-Aug-11 22:30N 33°46' W 118°13'1 1.5
2018-Aug-11 22:00N 33°46' W 118°13'5 9.1
2018-Aug-11 21:30N 33°42' W 118°10'510.3
2018-Aug-11 21:00N 33°38' W 118°06'510.4
2018-Aug-11 20:30N 33°34' W 118°03'510.3
2018-Aug-11 20:01N 33°30' W 117°59'5 9.9
2018-Aug-11 19:30N 33°26' W 117°55'510.0
2018-Aug-11 19:00N 33°22' W 117°52'510.0
2018-Aug-11 18:30N 33°18' W 117°48'510.0
2018-Aug-11 18:01N 33°14' W 117°45'5 9.9
2018-Aug-11 17:30N 33°10' W 117°41'5 9.6
2018-Aug-11 17:00N 33°06' W 117°38'510.1
2018-Aug-11 16:30N 33°02' W 117°34'5 9.9
2018-Aug-11 16:01N 32°58' W 117°31'5 9.9
2018-Aug-11 15:30N 32°53' W 117°28'510.4
2018-Aug-11 15:00N 32°49' W 117°25'510.3
2018-Aug-11 14:30N 32°45' W 117°21'5 9.8
2018-Aug-11 14:00N 32°41' W 117°18'3 6.7
2018-Aug-11 13:31N 32°40' W 117°14'3 5.2
2018-Aug-11 12:53N 32°43' W 117°14'0 0.0
2018-Aug-11 12:30N 32°43' W 117°14'1 1.7
2018-Aug-11 12:00N 32°43' W 117°13'1 1.4
2018-Aug-11 11:31N 32°43' W 117°13'3 5.8
2018-Aug-11 11:01N 32°40' W 117°14'510.0
2018-Aug-11 10:30N 32°35' W 117°16'5 9.6
2018-Aug-11 10:01N 32°31' W 117°19'5 9.5
2018-Aug-11 09:30N 32°27' W 117°22'5 9.5
2018-Aug-11 09:00N 32°23' W 117°20'510.3
2018-Aug-11 08:30N 32°18' W 117°16'5 0.5
2018-Aug-10 22:17N 32°22' W 117°21'310.5
2018-Aug-10 22:00N 32°25' W 117°22'510.0
2018-Aug-10 21:30N 32°30' W 117°21'510.7
2018-Aug-10 21:00N 32°34' W 117°18'510.6
2018-Aug-10 20:30N 32°39' W 117°14'3 5.5
2018-Aug-10 20:00N 32°42' W 117°14'1 1.0
2018-Aug-10 19:29N 32°42' W 117°14'1 2.4
2018-Aug-10 18:57N 32°43' W 117°14'0 0.0
2018-Aug-10 14:58N 32°43' W 117°14'0 0.0
2018-Aug-10 14:29N 32°43' W 117°14'4 7.5
2018-Aug-10 14:00N 32°40' W 117°14'4 8.9
2018-Aug-10 13:31N 32°37' W 117°18'5 9.9
2018-Aug-10 13:00N 32°38' W 117°24'5 9.6
2018-Aug-10 12:30N 32°39' W 117°29'4 8.2
2018-Aug-10 12:00N 32°42' W 117°33'4 7.8
2018-Aug-10 11:31N 32°46' W 117°35'5 9.1
2018-Aug-10 11:00N 32°50' W 117°37'5 9.1
2018-Aug-10 10:30N 32°54' W 117°39'5 9.3
2018-Aug-10 10:00N 32°58' W 117°42'  
Track history (hours):
 
Tides and Currents Weather Stations Pressure Air Temp Water Temp Dewpoint Dewpoint Depression Visibility Wind Speed Wind Dir Waves Ship Positions

Eldorado

Owner: FUKUTO / REDLEW CHARTERS, INC., CYPRESS, CA. More information available from US FCC via Universal Licensing System and Coast Guard Vessel Documentation Center.

Last reported at 2018-Aug-20 09:44 UTC. Time now 2018-Aug-21 04:21 UTC.
Position N 33°46' W 118°13'.

Length 28 m; draft 2.5 m.

Type: Passenger vessel. MMSI: 367404740.

Date/timePositionNaut miles runAvg speedWind from/ knotsBaromVisibWave heightAir tempDewpointWater temp
2018-Aug-20 09:44N 33°46' W 118°13'0 0.0
2018-Aug-20 09:30N 33°46' W 118°13'2 5.3
2018-Aug-20 09:04N 33°44' W 118°12'1 9.8
2018-Aug-20 09:00N 33°44' W 118°12'510.2
2018-Aug-20 08:31N 33°40' W 118°08'510.1
2018-Aug-20 08:03N 33°36' W 118°05'010.2
2018-Aug-20 08:01N 33°36' W 118°04'5 9.8
2018-Aug-20 07:31N 33°32' W 118°01'4 9.6
2018-Aug-20 07:03N 33°28' W 117°58'0 9.2
2018-Aug-20 07:01N 33°28' W 117°57'5 9.6
2018-Aug-20 06:31N 33°24' W 117°54'4 9.8
2018-Aug-20 06:04N 33°20' W 117°51'110.1
2018-Aug-20 06:01N 33°20' W 117°51'5 9.9
2018-Aug-20 05:31N 33°16' W 117°47'510.3
2018-Aug-20 05:04N 33°12' W 117°44'110.3
2018-Aug-20 05:01N 33°12' W 117°43'210.3
2018-Aug-20 04:47N 33°10' W 117°42'310.5
2018-Aug-20 04:31N 33°07' W 117°40'510.3
2018-Aug-20 04:00N 33°03' W 117°36'5 9.9
2018-Aug-20 03:30N 32°59' W 117°33'5 9.8
2018-Aug-20 03:01N 32°55' W 117°30'5 9.7
2018-Aug-20 02:30N 32°51' W 117°26'5 9.6
2018-Aug-20 02:01N 32°47' W 117°23'5 9.5
2018-Aug-20 01:30N 32°43' W 117°20'5 9.5
2018-Aug-20 01:00N 32°39' W 117°16'3 6.0
2018-Aug-20 00:30N 32°42' W 117°14'2 2.8
2018-Aug-19 23:51N 32°43' W 117°14'0 0.0
2018-Aug-19 23:21N 32°43' W 117°14'43 4.3
2018-Aug-19 13:13N 32°01' W 117°25'1 5.1
2018-Aug-19 13:00N 32°01' W 117°24'3 4.5
2018-Aug-19 12:25N 31°58' W 117°22'6 2.1
2018-Aug-19 09:23N 32°05' W 117°21'4 3.7
2018-Aug-19 08:26N 32°04' W 117°17'2 4.2
2018-Aug-19 08:00N 32°03' W 117°15'2 4.0
2018-Aug-19 07:30N 32°03' W 117°13'2 3.7
2018-Aug-19 07:00N 32°02' W 117°11'2 3.9
2018-Aug-19 06:30N 32°02' W 117°09'12 4.2
2018-Aug-19 03:42N 32°02' W 117°22'1 4.1
2018-Aug-19 03:30N 32°02' W 117°23'2 2.1
2018-Aug-19 02:42N 32°02' W 117°25'1 6.5
2018-Aug-19 02:30N 32°01' W 117°25'3 5.3
2018-Aug-19 01:59N 32°00' W 117°21'2 3.4
2018-Aug-19 01:24N 32°02' W 117°22'3 6.5
2018-Aug-19 00:58N 32°02' W 117°25'6 6.0
2018-Aug-18 23:54N 32°08' W 117°28'410.2
2018-Aug-18 23:30N 32°12' W 117°27'5 9.9
2018-Aug-18 23:00N 32°17' W 117°25'510.0
2018-Aug-18 22:30N 32°22' W 117°24'6 9.8
2018-Aug-18 21:56N 32°27' W 117°22'4 9.5
2018-Aug-18 21:30N 32°31' W 117°20'5 9.8
2018-Aug-18 21:00N 32°35' W 117°17'5 9.1
2018-Aug-18 20:30N 32°39' W 117°13'3 5.8
2018-Aug-18 20:00N 32°42' W 117°14'0 0.1
2018-Aug-18 19:30N 32°42' W 117°14'2 1.6
2018-Aug-18 18:19N 32°43' W 117°14'0 0.0
2018-Aug-18 17:58N 32°43' W 117°14'15 1.5
2018-Aug-18 08:16N 32°29' W 117°18'2 7.2
2018-Aug-18 08:00N 32°27' W 117°19'4 6.9
2018-Aug-18 07:26N 32°23' W 117°20'3 6.9
2018-Aug-18 06:58N 32°21' W 117°18'8 0.2
2018-Aug-16 22:08N 32°27' W 117°23'1 9.7
2018-Aug-16 21:59N 32°29' W 117°22'5 9.6
2018-Aug-16 21:30N 32°32' W 117°19'510.3
2018-Aug-16 21:00N 32°37' W 117°16'5 9.4
2018-Aug-16 20:30N 32°41' W 117°14'0 0.9
2018-Aug-16 20:00N 32°42' W 117°14'0 0.6
2018-Aug-16 19:30N 32°42' W 117°14'1 1.9
2018-Aug-16 18:44N 32°43' W 117°14'0 0.0
2018-Aug-16 17:57N 32°43' W 117°14'0 0.0
2018-Aug-16 17:13N 32°43' W 117°14'0 0.0
2018-Aug-16 15:42N 32°43' W 117°14'0 0.0
2018-Aug-16 14:15N 32°43' W 117°14'0 0.0
2018-Aug-16 13:57N 32°43' W 117°14'0 0.0
2018-Aug-16 13:27N 32°43' W 117°14'0 0.0
2018-Aug-16 13:00N 32°43' W 117°14'0 0.0
2018-Aug-16 12:30N 32°43' W 117°14'0 0.0
2018-Aug-16 11:59N 32°43' W 117°14'0 0.0
2018-Aug-16 11:29N 32°43' W 117°14'0 0.0
2018-Aug-16 10:58N 32°43' W 117°14'0 0.0
2018-Aug-16 10:30N 32°43' W 117°14'0 0.0
2018-Aug-16 10:00N 32°43' W 117°14'1 0.5
2018-Aug-16 08:41N 32°43' W 117°13'2 9.5
2018-Aug-16 08:30N 32°41' W 117°14'4 7.8
2018-Aug-16 08:00N 32°38' W 117°17'5 9.9
2018-Aug-16 07:30N 32°42' W 117°21'5 9.6
2018-Aug-16 07:00N 32°46' W 117°24'5 9.6
2018-Aug-16 06:30N 32°50' W 117°27'510.1
2018-Aug-16 06:00N 32°54' W 117°31'5 9.7
2018-Aug-16 05:30N 32°58' W 117°34'5 9.6
2018-Aug-16 05:00N 33°02' W 117°37'5 9.4
2018-Aug-16 04:30N 33°06' W 117°40'5 9.6
2018-Aug-16 04:00N 33°10' W 117°44'510.0
2018-Aug-16 03:30N 33°14' W 117°47'510.2
2018-Aug-16 03:00N 33°18' W 117°50'510.3
2018-Aug-16 02:30N 33°22' W 117°54'510.5
2018-Aug-16 02:00N 33°27' W 117°57'510.7
2018-Aug-16 01:30N 33°31' W 118°01'510.9
2018-Aug-16 01:00N 33°36' W 118°05'510.5
2018-Aug-16 00:30N 33°40' W 118°08'510.3
2018-Aug-16 00:00N 33°44' W 118°12'2 4.6
2018-Aug-15 23:30N 33°46' W 118°13'0 0.0
2018-Aug-15 23:00N 33°46' W 118°13'0 0.0
2018-Aug-15 22:30N 33°46' W 118°13'3 5.1
2018-Aug-15 22:00N 33°44' W 118°13'3 5.2
2018-Aug-15 21:30N 33°44' W 118°17'0 0.1
2018-Aug-15 21:00N 33°44' W 118°16'3 6.0
2018-Aug-15 20:30N 33°45' W 118°13'  
2018-Aug-11 22:32N 33°46' W 118°13'0 0.0
2018-Aug-11 22:30N 33°46' W 118°13'1 1.5
2018-Aug-11 22:00N 33°46' W 118°13'5 9.1
2018-Aug-11 21:30N 33°42' W 118°10'510.3
2018-Aug-11 21:00N 33°38' W 118°06'510.4
2018-Aug-11 20:30N 33°34' W 118°03'510.3
2018-Aug-11 20:01N 33°30' W 117°59'5 9.9
2018-Aug-11 19:30N 33°26' W 117°55'510.0
2018-Aug-11 19:00N 33°22' W 117°52'510.0
2018-Aug-11 18:30N 33°18' W 117°48'510.0
2018-Aug-11 18:01N 33°14' W 117°45'5 9.9
2018-Aug-11 17:30N 33°10' W 117°41'5 9.6
2018-Aug-11 17:00N 33°06' W 117°38'510.1
2018-Aug-11 16:30N 33°02' W 117°34'5 9.9
2018-Aug-11 16:01N 32°58' W 117°31'5 9.9
2018-Aug-11 15:30N 32°53' W 117°28'510.4
2018-Aug-11 15:00N 32°49' W 117°25'510.3
2018-Aug-11 14:30N 32°45' W 117°21'5 9.8
2018-Aug-11 14:00N 32°41' W 117°18'3 6.7
2018-Aug-11 13:31N 32°40' W 117°14'3 5.2
2018-Aug-11 12:53N 32°43' W 117°14'0 0.0
2018-Aug-11 12:30N 32°43' W 117°14'1 1.7
2018-Aug-11 12:00N 32°43' W 117°13'1 1.4
2018-Aug-11 11:31N 32°43' W 117°13'3 5.8
2018-Aug-11 11:01N 32°40' W 117°14'510.0
2018-Aug-11 10:30N 32°35' W 117°16'5 9.6
2018-Aug-11 10:01N 32°31' W 117°19'5 9.5
2018-Aug-11 09:30N 32°27' W 117°22'5 9.5
2018-Aug-11 09:00N 32°23' W 117°20'510.3
2018-Aug-11 08:30N 32°18' W 117°16'5 0.5
2018-Aug-10 22:17N 32°22' W 117°21'310.5
2018-Aug-10 22:00N 32°25' W 117°22'510.0
2018-Aug-10 21:30N 32°30' W 117°21'510.7
2018-Aug-10 21:00N 32°34' W 117°18'510.6
2018-Aug-10 20:30N 32°39' W 117°14'3 5.5
2018-Aug-10 20:00N 32°42' W 117°14'1 1.0
2018-Aug-10 19:29N 32°42' W 117°14'1 2.4
2018-Aug-10 18:57N 32°43' W 117°14'0 0.0
2018-Aug-10 14:58N 32°43' W 117°14'0 0.0
2018-Aug-10 14:29N 32°43' W 117°14'4 7.5
2018-Aug-10 14:00N 32°40' W 117°14'4 8.9
2018-Aug-10 13:31N 32°37' W 117°18'5 9.9
2018-Aug-10 13:00N 32°38' W 117°24'5 9.6
2018-Aug-10 12:30N 32°39' W 117°29'4 8.2
2018-Aug-10 12:00N 32°42' W 117°33'4 7.8
2018-Aug-10 11:31N 32°46' W 117°35'5 9.1
2018-Aug-10 11:00N 32°50' W 117°37'5 9.1
2018-Aug-10 10:30N 32°54' W 117°39'5 9.3
2018-Aug-10 10:00N 32°58' W 117°42'  

Dump ship's entire track history